createdAt,value
2022-08-21T00:00:04.318Z,7.00
2022-08-21T00:02:31.328Z,7.70
2022-08-21T00:04:58.259Z,7.33
2022-08-21T00:07:25.528Z,7.60
2022-08-21T00:09:53.338Z,8.33
2022-08-21T00:12:20.502Z,5.17
2022-08-21T00:14:47.600Z,8.10
2022-08-21T00:17:14.404Z,8.07
2022-08-21T00:19:41.617Z,7.43
2022-08-21T00:22:08.612Z,7.03
2022-08-21T00:24:35.541Z,7.37
2022-08-21T00:27:02.331Z,10.90
2022-08-21T00:29:29.051Z,9.37
2022-08-21T00:31:55.802Z,10.23
2022-08-21T00:34:22.704Z,6.93
2022-08-21T00:36:49.461Z,8.00
2022-08-21T00:39:16.179Z,7.23
2022-08-21T00:41:43.520Z,8.73
2022-08-21T00:44:13.325Z,6.90
2022-08-21T00:46:41.678Z,8.27
2022-08-21T00:49:10.795Z,7.03
2022-08-21T00:51:51.811Z,6.23
2022-08-21T00:54:21.403Z,9.63
2022-08-21T00:56:52.304Z,6.83
2022-08-21T00:59:20.713Z,6.60
2022-08-21T01:01:48.510Z,7.63
2022-08-21T01:04:17.292Z,9.80
2022-08-21T01:06:44.747Z,4.33
2022-08-21T01:09:12.736Z,5.83
2022-08-21T01:11:39.893Z,5.83
2022-08-21T01:14:06.616Z,8.43
2022-08-21T01:16:34.485Z,7.20
2022-08-21T01:19:01.207Z,7.37
2022-08-21T01:21:29.359Z,5.67
2022-08-21T01:23:57.559Z,8.30
2022-08-21T01:26:33.711Z,9.97
2022-08-21T01:29:17.711Z,7.97
2022-08-21T01:31:44.988Z,9.37
2022-08-21T01:34:12.650Z,8.93
2022-08-21T01:36:39.531Z,10.97
2022-08-21T01:39:07.029Z,10.57
2022-08-21T01:41:33.944Z,9.83
2022-08-21T01:44:00.753Z,8.33
2022-08-21T01:46:27.736Z,11.23
2022-08-21T01:48:54.515Z,8.37
2022-08-21T01:51:21.284Z,11.30
2022-08-21T01:53:48.124Z,6.03
2022-08-21T01:56:16.638Z,9.73
2022-08-21T01:58:46.005Z,8.30
2022-08-21T02:01:13.116Z,6.80
2022-08-21T02:03:40.264Z,11.40
2022-08-21T02:06:08.156Z,9.93
2022-08-21T02:08:35.452Z,10.13
2022-08-21T02:11:02.284Z,9.60
2022-08-21T02:13:29.066Z,7.53
2022-08-21T02:15:55.845Z,9.63
2022-08-21T02:18:22.698Z,8.60
2022-08-21T02:20:53.646Z,12.53
2022-08-21T02:23:27.424Z,12.43
2022-08-21T02:26:07.668Z,8.93
2022-08-21T02:28:35.485Z,8.53
2022-08-21T02:31:02.896Z,8.63
2022-08-21T02:33:30.119Z,11.77
2022-08-21T02:35:57.865Z,11.83
2022-08-21T02:38:27.933Z,6.80
2022-08-21T02:40:55.807Z,9.97
2022-08-21T02:43:25.111Z,11.23
2022-08-21T02:45:52.504Z,11.23
2022-08-21T02:48:22.804Z,9.93
2022-08-21T02:50:53.914Z,7.83
2022-08-21T02:53:20.827Z,10.47
2022-08-21T02:55:50.286Z,14.50
2022-08-21T02:58:19.942Z,9.30
2022-08-21T03:00:46.920Z,11.27
2022-08-21T03:03:15.454Z,10.30
2022-08-21T03:05:43.780Z,7.37
2022-08-21T03:08:13.340Z,10.60
2022-08-21T03:10:43.630Z,14.47
2022-08-21T03:13:11.398Z,12.93
2022-08-21T03:15:38.684Z,10.73
2022-08-21T03:18:06.504Z,10.53
2022-08-21T03:20:33.811Z,11.00
2022-08-21T03:23:01.549Z,9.23
2022-08-21T03:25:39.732Z,11.53
2022-08-21T03:28:12.839Z,15.60
2022-08-21T03:30:41.934Z,15.03
2022-08-21T03:33:08.915Z,10.27
2022-08-21T03:35:39.188Z,9.23
2022-08-21T03:38:05.939Z,13.43
2022-08-21T03:40:32.883Z,11.53
2022-08-21T03:42:59.920Z,11.27
2022-08-21T03:45:27.079Z,10.27
2022-08-21T03:47:53.939Z,16.43
2022-08-21T03:50:23.512Z,13.07
2022-08-21T03:52:50.625Z,10.57
2022-08-21T03:55:18.015Z,13.87
2022-08-21T03:57:45.183Z,10.53
2022-08-21T04:00:14.381Z,10.90
2022-08-21T04:02:42.034Z,13.77
2022-08-21T04:05:08.990Z,13.37
2022-08-21T04:07:36.444Z,14.13
2022-08-21T04:10:05.062Z,11.83
2022-08-21T04:12:32.399Z,9.00
2022-08-21T04:14:59.461Z,10.60
2022-08-21T04:17:26.286Z,11.70
2022-08-21T04:19:53.961Z,13.33
2022-08-21T04:22:21.940Z,12.80
2022-08-21T04:24:48.790Z,12.53
2022-08-21T04:27:15.693Z,11.80
2022-08-21T04:29:42.795Z,15.30
2022-08-21T04:32:09.525Z,11.40
2022-08-21T04:34:36.334Z,11.70
2022-08-21T04:37:04.315Z,12.60
2022-08-21T04:39:31.203Z,12.73
2022-08-21T04:41:57.902Z,14.10
2022-08-21T04:44:24.743Z,13.57
2022-08-21T04:46:51.443Z,11.13
2022-08-21T04:49:18.386Z,12.13
2022-08-21T04:51:45.434Z,13.07
2022-08-21T04:54:17.446Z,14.87
2022-08-21T04:56:50.771Z,14.53
2022-08-21T04:59:22.143Z,11.57
2022-08-21T05:01:49.331Z,12.47
2022-08-21T05:04:20.608Z,13.07
2022-08-21T05:06:49.782Z,14.97
2022-08-21T05:09:18.609Z,13.83
2022-08-21T05:11:46.093Z,12.03
2022-08-21T05:14:13.845Z,15.83
2022-08-21T05:16:41.606Z,13.57
2022-08-21T05:19:09.331Z,14.30
2022-08-21T05:21:38.708Z,13.30
2022-08-21T05:24:06.022Z,14.77
2022-08-21T05:26:32.906Z,15.37
2022-08-21T05:28:59.954Z,14.40
2022-08-21T05:31:27.040Z,17.93
2022-08-21T05:33:54.139Z,14.33
2022-08-21T05:36:23.447Z,14.73
2022-08-21T05:38:50.718Z,12.70
2022-08-21T05:41:17.945Z,12.47
2022-08-21T05:43:44.701Z,13.07
2022-08-21T05:46:11.544Z,16.47
2022-08-21T05:48:38.538Z,12.20
2022-08-21T05:51:14.109Z,11.43
2022-08-21T05:53:45.899Z,13.60
2022-08-21T05:56:13.536Z,12.73
2022-08-21T05:58:40.538Z,14.10
2022-08-21T06:01:09.500Z,12.93
2022-08-21T06:03:38.680Z,15.10
2022-08-21T06:06:05.744Z,14.10
2022-08-21T06:08:32.743Z,11.53
2022-08-21T06:11:01.080Z,15.10
2022-08-21T06:13:28.386Z,14.10
2022-08-21T06:16:08.214Z,12.33
2022-08-21T06:18:36.593Z,15.47
2022-08-21T06:21:04.063Z,12.87
2022-08-21T06:23:31.759Z,12.30
2022-08-21T06:26:00.866Z,13.87
2022-08-21T06:28:27.704Z,13.83
2022-08-21T06:30:54.919Z,14.57
2022-08-21T06:33:21.882Z,17.50
2022-08-21T06:35:49.428Z,17.90
2022-08-21T06:38:16.533Z,11.83
2022-08-21T06:40:46.926Z,10.00
2022-08-21T06:43:16.423Z,13.80
2022-08-21T06:45:44.283Z,12.57
2022-08-21T06:48:14.528Z,14.50
2022-08-21T06:50:43.977Z,15.80
2022-08-21T06:53:13.843Z,13.27
2022-08-21T06:55:41.173Z,12.20
2022-08-21T06:58:08.607Z,13.23
2022-08-21T07:00:41.951Z,11.70
2022-08-21T07:03:08.854Z,13.90
2022-08-21T07:05:35.693Z,12.20
2022-08-21T07:08:02.673Z,12.93
2022-08-21T07:10:29.698Z,16.40
2022-08-21T07:13:01.168Z,13.87
2022-08-21T07:15:31.159Z,12.67
2022-08-21T07:17:59.457Z,14.80
2022-08-21T07:20:27.919Z,16.87
2022-08-21T07:22:55.505Z,13.33
2022-08-21T07:25:22.637Z,14.43
2022-08-21T07:27:49.387Z,10.30
2022-08-21T07:30:16.298Z,12.83
2022-08-21T07:32:43.038Z,16.57
2022-08-21T07:35:09.759Z,10.10
2022-08-21T07:37:36.637Z,13.40
2022-08-21T07:40:04.433Z,13.60
2022-08-21T07:42:31.209Z,8.83
2022-08-21T07:44:58.002Z,11.47
2022-08-21T07:47:29.395Z,10.50
2022-08-21T07:50:12.277Z,13.67
2022-08-21T07:52:40.321Z,12.00
2022-08-21T07:55:08.830Z,11.87
2022-08-21T07:57:38.204Z,10.27
2022-08-21T08:00:08.021Z,9.57
2022-08-21T08:02:35.081Z,8.47
2022-08-21T08:05:07.168Z,10.63
2022-08-21T08:07:34.272Z,9.27
2022-08-21T08:10:01.799Z,9.47
2022-08-21T08:12:30.449Z,10.10
2022-08-21T08:15:01.752Z,8.87
2022-08-21T08:17:29.438Z,12.00
2022-08-21T08:19:56.456Z,10.93
2022-08-21T08:22:26.930Z,10.03
2022-08-21T08:24:54.559Z,14.40
2022-08-21T08:27:21.632Z,13.83
2022-08-21T08:29:48.797Z,10.10
2022-08-21T08:32:16.010Z,9.73
2022-08-21T08:34:42.907Z,13.17
2022-08-21T08:37:11.190Z,9.50
2022-08-21T08:39:39.144Z,7.97
2022-08-21T08:42:32.903Z,8.27
2022-08-21T08:45:20.219Z,13.37
2022-08-21T08:47:58.816Z,9.43
2022-08-21T08:50:37.864Z,10.80
2022-08-21T08:53:16.743Z,10.67
2022-08-21T08:55:45.634Z,12.13
2022-08-21T08:58:25.903Z,10.25
2022-08-21T09:00:54.934Z,8.23
2022-08-21T09:03:23.912Z,7.68
2022-08-21T09:06:11.926Z,9.95
2022-08-21T09:08:50.960Z,7.68
2022-08-21T09:11:38.139Z,6.57
2022-08-21T09:14:31.898Z,12.85
2022-08-21T09:17:07.893Z,8.13
2022-08-21T09:20:04.095Z,9.10
2022-08-21T09:23:09.156Z,8.35
2022-08-21T09:25:46.782Z,8.18
2022-08-21T09:28:16.772Z,6.55
2022-08-21T09:30:43.544Z,13.73
2022-08-21T09:33:13.602Z,9.75
2022-08-21T09:35:53.639Z,7.13
2022-08-21T09:38:29.113Z,9.20
2022-08-21T09:41:05.826Z,9.05
2022-08-21T09:43:33.254Z,4.03
2022-08-21T09:46:25.492Z,5.82
2022-08-21T09:48:55.464Z,7.30
2022-08-21T09:51:29.064Z,10.50
2022-08-21T09:54:06.281Z,9.00
2022-08-21T09:57:05.653Z,9.60
2022-08-21T09:59:37.150Z,9.95
2022-08-21T10:02:37.104Z,7.20
2022-08-21T10:05:26.634Z,8.73
2022-08-21T10:07:53.959Z,8.38
2022-08-21T10:10:24.559Z,9.25
2022-08-21T10:13:11.577Z,4.65
2022-08-21T10:15:41.170Z,6.75
2022-08-21T10:18:30.707Z,8.30
2022-08-21T10:21:26.766Z,6.20
2022-08-21T10:24:02.310Z,8.38
2022-08-21T10:26:47.662Z,7.47
2022-08-21T10:29:22.381Z,7.00
2022-08-21T10:31:52.138Z,5.95
2022-08-21T10:34:38.011Z,2.95
2022-08-21T10:37:10.798Z,4.28
2022-08-21T10:40:15.244Z,4.20
2022-08-21T10:43:04.691Z,4.95
2022-08-21T10:45:50.248Z,4.13
2022-08-21T10:48:37.571Z,6.07
2022-08-21T10:51:18.112Z,6.55
2022-08-21T10:54:02.380Z,3.72
2022-08-21T10:56:36.841Z,4.88
2022-08-21T10:59:44.401Z,5.32
2022-08-21T11:02:48.443Z,4.45
2022-08-21T11:05:21.706Z,4.47
2022-08-21T11:07:57.313Z,6.85
2022-08-21T11:10:36.954Z,5.22
2022-08-21T11:13:34.181Z,5.85
2022-08-21T11:16:32.013Z,5.32
2022-08-21T11:19:22.970Z,6.03
2022-08-21T11:22:17.246Z,4.10
2022-08-21T11:24:48.318Z,4.45
2022-08-21T11:27:37.454Z,6.50
2022-08-21T11:30:05.121Z,6.63
2022-08-21T11:32:56.727Z,3.42
2022-08-21T11:35:44.647Z,4.20
2022-08-21T11:38:11.398Z,7.13
2022-08-21T11:41:15.514Z,4.38
2022-08-21T11:43:54.735Z,4.47
2022-08-21T11:46:50.690Z,5.43
2022-08-21T11:49:18.147Z,5.55
2022-08-21T11:52:11.554Z,9.52
2022-08-21T11:55:07.701Z,4.13
2022-08-21T11:57:43.477Z,5.25
2022-08-21T12:00:26.331Z,4.47
2022-08-21T12:03:06.930Z,5.78
2022-08-21T12:05:39.430Z,4.68
2022-08-21T12:08:27.179Z,3.58
2022-08-21T12:11:24.847Z,7.25
2022-08-21T12:13:57.864Z,9.27
2022-08-21T12:16:42.671Z,5.32
2022-08-21T12:19:15.225Z,4.10
2022-08-21T12:22:02.079Z,3.42
2022-08-21T12:24:29.001Z,5.38
2022-08-21T12:27:16.026Z,11.90
2022-08-21T12:29:51.245Z,9.25
2022-08-21T12:32:18.050Z,7.53
2022-08-21T12:34:56.252Z,4.93
2022-08-21T12:37:30.960Z,4.68
2022-08-21T12:40:01.739Z,5.40
2022-08-21T12:42:52.927Z,3.03
2022-08-21T12:45:34.654Z,3.58
2022-08-21T12:48:41.242Z,4.70
2022-08-21T12:51:15.519Z,5.68
2022-08-21T12:53:52.248Z,3.42
2022-08-21T12:56:21.756Z,5.20
2022-08-21T12:58:51.652Z,14.60
2022-08-21T13:01:52.654Z,5.85
2022-08-21T13:04:38.190Z,4.00
2022-08-21T13:07:13.283Z,6.75
2022-08-21T13:09:54.473Z,3.15
2022-08-21T13:12:23.770Z,4.47
2022-08-21T13:14:58.271Z,4.53
2022-08-21T13:17:27.273Z,4.93
2022-08-21T13:19:59.286Z,4.80
2022-08-21T13:22:33.698Z,5.47
2022-08-21T13:25:02.401Z,6.00
2022-08-21T13:27:35.956Z,6.15
2022-08-21T13:30:10.788Z,3.25
2022-08-21T13:32:45.023Z,4.78
2022-08-21T13:35:26.571Z,5.72
2022-08-21T13:37:55.704Z,7.18
2022-08-21T13:40:29.700Z,3.55
2022-08-21T13:42:58.232Z,3.65
2022-08-21T13:45:33.293Z,4.53
2022-08-21T13:48:06.703Z,4.28
2022-08-21T13:50:43.642Z,5.40
2022-08-21T13:53:30.686Z,3.97
2022-08-21T13:56:01.073Z,8.32
2022-08-21T13:58:44.440Z,2.58
2022-08-21T14:01:34.858Z,5.90
2022-08-21T14:04:13.176Z,4.63
2022-08-21T14:06:40.238Z,5.22
2022-08-21T14:09:14.257Z,6.43
2022-08-21T14:11:42.324Z,6.65
2022-08-21T14:14:28.364Z,7.30
2022-08-21T14:16:58.916Z,6.50
2022-08-21T14:19:28.911Z,7.85
2022-08-21T14:21:55.767Z,4.68
2022-08-21T14:24:29.573Z,6.65
2022-08-21T14:26:59.351Z,5.38
2022-08-21T14:29:33.058Z,5.28
2022-08-21T14:32:32.891Z,7.15
2022-08-21T14:34:59.815Z,3.53
2022-08-21T14:37:26.718Z,4.85
2022-08-21T14:39:53.615Z,6.13
2022-08-21T14:42:20.748Z,6.15
2022-08-21T14:44:48.128Z,5.13
2022-08-21T14:47:14.928Z,7.68
2022-08-21T14:49:41.599Z,5.85
2022-08-21T14:52:08.539Z,3.97
2022-08-21T14:54:35.413Z,5.85
2022-08-21T14:57:07.288Z,6.35
2022-08-21T14:59:35.404Z,5.28
2022-08-21T15:02:05.387Z,6.15
2022-08-21T15:04:33.048Z,5.40
2022-08-21T15:06:59.960Z,6.38
2022-08-21T15:09:29.734Z,5.43
2022-08-21T15:11:58.414Z,5.43
2022-08-21T15:14:30.727Z,5.78
2022-08-21T15:16:58.099Z,6.95
2022-08-21T15:19:25.498Z,6.03
2022-08-21T15:21:52.543Z,6.03
2022-08-21T15:24:19.375Z,4.47
2022-08-21T15:26:46.570Z,5.93
2022-08-21T15:29:13.402Z,6.75
2022-08-21T15:31:58.675Z,4.00
2022-08-21T15:34:30.716Z,4.72
2022-08-21T15:36:58.732Z,4.93
2022-08-21T15:39:31.145Z,5.20
2022-08-21T15:41:58.485Z,7.65
2022-08-21T15:44:28.253Z,4.28
2022-08-21T15:46:56.557Z,3.72
2022-08-21T15:49:24.210Z,5.10
2022-08-21T15:51:51.046Z,11.65
2022-08-21T15:54:18.209Z,7.72
2022-08-21T15:56:49.720Z,6.22
2022-08-21T15:59:22.946Z,6.20
2022-08-21T16:01:53.520Z,4.38
2022-08-21T16:04:27.377Z,6.75
2022-08-21T16:06:59.976Z,7.18
2022-08-21T16:09:32.107Z,5.88
2022-08-21T16:12:01.546Z,6.32
2022-08-21T16:14:30.542Z,8.23
2022-08-21T16:16:57.479Z,6.43
2022-08-21T16:19:24.319Z,9.02
2022-08-21T16:21:51.074Z,5.55
2022-08-21T16:24:17.935Z,6.75
2022-08-21T16:26:44.780Z,6.38
2022-08-21T16:29:12.037Z,7.30
2022-08-21T16:31:39.075Z,7.13
2022-08-21T16:34:05.837Z,4.65
2022-08-21T16:36:32.673Z,4.70
2022-08-21T16:39:03.358Z,4.28
2022-08-21T16:41:33.743Z,6.70
2022-08-21T16:44:01.645Z,5.22
2022-08-21T16:46:32.804Z,7.95
2022-08-21T16:48:59.599Z,8.82
2022-08-21T16:51:26.382Z,5.80
2022-08-21T16:53:53.494Z,4.53
2022-08-21T16:56:20.455Z,4.10
2022-08-21T16:58:49.759Z,6.40
2022-08-21T17:01:22.744Z,7.68
2022-08-21T17:03:51.318Z,7.47
2022-08-21T17:06:19.822Z,5.90
2022-08-21T17:08:47.370Z,6.25
2022-08-21T17:11:36.491Z,7.18
2022-08-21T17:14:18.215Z,3.90
2022-08-21T17:16:47.157Z,7.40
2022-08-21T17:19:14.394Z,4.97
2022-08-21T17:21:41.351Z,6.75
2022-08-21T17:24:10.687Z,8.83
2022-08-21T17:26:37.740Z,7.20
2022-08-21T17:29:09.848Z,6.07
2022-08-21T17:31:38.931Z,6.33
2022-08-21T17:34:06.682Z,6.50
2022-08-21T17:36:33.623Z,5.90
2022-08-21T17:39:00.606Z,6.10
2022-08-21T17:41:27.727Z,7.07
2022-08-21T17:43:55.631Z,5.07
2022-08-21T17:46:24.755Z,8.00
2022-08-21T17:48:51.860Z,4.80
2022-08-21T17:51:19.544Z,5.63
2022-08-21T17:53:46.794Z,3.67
2022-08-21T17:56:19.938Z,9.07
2022-08-21T17:58:50.608Z,4.57
2022-08-21T18:01:19.408Z,4.10
2022-08-21T18:03:49.659Z,4.67
2022-08-21T18:06:17.892Z,5.10
2022-08-21T18:08:45.836Z,8.03
2022-08-21T18:11:23.110Z,5.20
2022-08-21T18:13:53.448Z,6.13
2022-08-21T18:16:21.251Z,5.63
2022-08-21T18:18:49.371Z,45.27
2022-08-21T18:21:16.372Z,8.70
2022-08-21T18:23:44.946Z,5.87
2022-08-21T18:26:16.210Z,4.43
2022-08-21T18:28:44.334Z,7.23
2022-08-21T18:31:12.862Z,11.87
2022-08-21T18:33:57.021Z,5.50
2022-08-21T18:36:26.720Z,7.03
2022-08-21T18:38:53.905Z,7.30
2022-08-21T18:41:20.878Z,4.87
2022-08-21T18:43:48.037Z,7.13
2022-08-21T18:46:15.096Z,4.07
2022-08-21T18:48:43.863Z,5.37
2022-08-21T18:51:12.333Z,5.33
2022-08-21T18:53:39.511Z,5.27
2022-08-21T18:56:07.097Z,4.53
2022-08-21T18:58:44.232Z,5.17
2022-08-21T19:01:11.669Z,5.27
2022-08-21T19:03:39.384Z,4.60
2022-08-21T19:06:06.376Z,8.13
2022-08-21T19:08:38.516Z,6.70
2022-08-21T19:11:06.551Z,4.50
2022-08-21T19:13:34.999Z,6.97
2022-08-21T19:16:05.370Z,4.00
2022-08-21T19:18:40.674Z,4.20
2022-08-21T19:21:08.250Z,3.73
2022-08-21T19:23:35.593Z,5.00
2022-08-21T19:26:05.988Z,4.93
2022-08-21T19:28:40.510Z,5.70
2022-08-21T19:31:16.259Z,5.87
2022-08-21T19:33:47.563Z,4.90
2022-08-21T19:36:18.311Z,3.23
2022-08-21T19:38:45.984Z,6.00
2022-08-21T19:41:15.527Z,3.60
2022-08-21T19:43:47.362Z,4.57
2022-08-21T19:46:20.475Z,4.90
2022-08-21T19:48:47.298Z,4.23
2022-08-21T19:51:15.470Z,6.10
2022-08-21T19:53:42.271Z,4.67
2022-08-21T19:56:14.615Z,3.93
2022-08-21T19:58:44.311Z,3.70
2022-08-21T20:04:00.406Z,6.67
2022-08-21T20:06:27.463Z,4.90
2022-08-21T20:08:55.324Z,5.13
2022-08-21T20:11:31.878Z,5.57
2022-08-21T20:14:00.756Z,4.13
2022-08-21T20:16:29.075Z,6.43
2022-08-21T20:18:56.488Z,3.67
2022-08-21T20:21:23.273Z,5.23
2022-08-21T20:27:02.579Z,5.90
2022-08-21T20:29:38.972Z,7.13
2022-08-21T20:32:11.968Z,4.50
2022-08-21T20:34:40.109Z,3.53
2022-08-21T20:37:06.848Z,3.37
2022-08-21T20:39:36.648Z,5.20
2022-08-21T20:42:06.878Z,7.03
2022-08-21T20:44:35.801Z,4.90
2022-08-21T20:47:04.786Z,5.07
2022-08-21T20:49:43.221Z,5.10
2022-08-21T20:52:10.879Z,4.93
2022-08-21T20:54:57.882Z,4.70
2022-08-21T20:57:31.760Z,5.67
2022-08-21T21:03:07.765Z,5.17
2022-08-21T21:05:50.165Z,4.00
2022-08-21T21:08:29.346Z,7.47
2022-08-21T21:11:23.903Z,7.03
2022-08-21T21:14:00.175Z,6.63
2022-08-21T21:16:40.454Z,7.80
2022-08-21T21:19:23.577Z,5.70
2022-08-21T21:21:58.591Z,7.23
2022-08-21T21:24:36.741Z,5.23
2022-08-21T21:30:24.399Z,8.50
2022-08-21T21:32:52.957Z,4.20
2022-08-21T21:35:32.799Z,6.77
2022-08-21T21:38:16.754Z,9.57
2022-08-21T21:41:11.041Z,8.90
2022-08-21T21:43:53.433Z,6.63
2022-08-21T21:46:27.221Z,7.53
2022-08-21T21:49:11.706Z,5.60
2022-08-21T21:52:17.506Z,5.03
2022-08-21T21:54:54.303Z,4.63
2022-08-21T21:57:40.271Z,4.97
2022-08-21T22:00:18.824Z,5.40
2022-08-21T22:02:58.844Z,6.73
2022-08-21T22:05:57.807Z,4.93
2022-08-21T22:08:52.343Z,5.03
2022-08-21T22:11:58.224Z,4.40
2022-08-21T22:14:34.441Z,6.80
2022-08-21T22:17:25.186Z,11.33
2022-08-21T22:19:54.632Z,5.23
2022-08-21T22:22:24.806Z,7.10
2022-08-21T22:24:58.922Z,5.30
2022-08-21T22:27:34.241Z,8.87
2022-08-21T22:30:06.454Z,8.20
2022-08-21T22:32:42.782Z,7.90
2022-08-21T22:35:25.985Z,7.97
2022-08-21T22:37:58.223Z,4.47
2022-08-21T22:40:35.261Z,8.53
2022-08-21T22:43:09.401Z,6.17
2022-08-21T22:46:06.555Z,10.40
2022-08-21T22:48:38.602Z,10.53
2022-08-21T22:51:13.801Z,8.57
2022-08-21T22:53:43.235Z,7.30
2022-08-21T22:56:25.786Z,6.17
2022-08-21T22:58:56.321Z,10.33
2022-08-21T23:01:23.702Z,8.17
2022-08-21T23:03:54.587Z,8.83
2022-08-21T23:06:24.543Z,9.13
2022-08-21T23:08:53.578Z,9.23
2022-08-21T23:11:24.907Z,9.00
2022-08-21T23:13:55.353Z,11.37
2022-08-21T23:16:33.858Z,7.00
2022-08-21T23:19:03.768Z,8.70
2022-08-21T23:21:41.315Z,7.70
2022-08-21T23:24:46.745Z,7.47
2022-08-21T23:27:48.076Z,8.10
2022-08-21T23:30:30.975Z,8.70
2022-08-21T23:33:18.921Z,9.87
2022-08-21T23:36:18.579Z,15.87
2022-08-21T23:39:20.438Z,7.67
2022-08-21T23:42:08.318Z,8.50
2022-08-21T23:44:43.202Z,12.37
2022-08-21T23:47:37.254Z,6.40
2022-08-21T23:50:14.669Z,11.40
2022-08-21T23:52:58.205Z,10.67
2022-08-21T23:55:44.532Z,13.90
2022-08-21T23:58:26.929Z,10.77
